Time;durP1;ratioP1;P1;durP2;ratioP2;P2;SDS_P1;SDS_P2;PMS_P1;PMS_P2;Temp;Humidity;BMP_temperature;BMP_pressure;BME280_temperature;BME280_humidity;BME280_pressure;Samples;Min_cycle;Max_cycle;Signal;HPM_P1;HPM_P2
2023/09/15 00:00:46;;;;;;;6.50;4.80;;;18.30;99.90;;;;;;5017087;28;20576;-69
2023/09/15 00:03:12;;;;;;;7.63;4.80;;;18.30;99.90;;;;;;5027456;28;20095;-69
2023/09/15 00:05:38;;;;;;;11.50;4.77;;;18.30;99.90;;;;;;5011487;28;20496;-69
2023/09/15 00:08:05;;;;;;;9.93;4.95;;;18.20;99.90;;;;;;5007742;28;20066;-69
2023/09/15 00:10:34;;;;;;;11.02;4.43;;;18.30;99.90;;;;;;5008829;28;20025;-69
2023/09/15 00:13:00;;;;;;;6.03;5.43;;;18.30;99.90;;;;;;5027652;28;20026;-69
2023/09/15 00:15:26;;;;;;;14.05;4.53;;;18.20;99.90;;;;;;5027135;28;20034;-69
2023/09/15 00:17:52;;;;;;;9.32;5.00;;;18.20;99.90;;;;;;5027118;28;20513;-69
2023/09/15 00:20:18;;;;;;;9.40;4.90;;;18.30;99.90;;;;;;5027350;28;20143;-69
2023/09/15 00:22:51;;;;;;;7.97;4.60;;;18.20;99.90;;;;;;5026672;28;20119;-69
2023/09/15 00:25:21;;;;;;;5.88;4.72;;;18.20;99.90;;;;;;5026743;28;20041;-69
2023/09/15 00:27:54;;;;;;;5.18;4.68;;;18.30;99.90;;;;;;5027314;28;20025;-69
2023/09/15 00:30:21;;;;;;;8.75;5.18;;;18.10;99.90;;;;;;5027042;28;20037;-69
2023/09/15 00:32:48;;;;;;;9.65;4.65;;;18.10;99.90;;;;;;5027620;28;20022;-69
2023/09/15 00:35:16;;;;;;;7.00;4.60;;;18.10;99.90;;;;;;5026649;28;20040;-69
2023/09/15 00:37:43;;;;;;;7.32;5.18;;;18.20;99.90;;;;;;5027401;28;20040;-69
2023/09/15 00:40:10;;;;;;;8.63;5.20;;;18.10;99.90;;;;;;5026241;28;20171;-69
2023/09/15 00:42:40;;;;;;;;;;;18.20;99.90;;;;;;5027471;28;20025;-69
2023/09/15 00:45:13;;;;;;;6.95;4.75;;;18.10;99.90;;;;;;5026358;28;19932;-69
2023/09/15 00:47:38;;;;;;;7.13;4.70;;;18.10;99.90;;;;;;5026290;28;20040;-69
2023/09/15 00:50:05;;;;;;;7.93;4.50;;;18.20;99.90;;;;;;5026676;28;20405;-69
2023/09/15 00:52:33;;;;;;;9.55;4.88;;;18.00;99.90;;;;;;5026802;28;20532;-69
2023/09/15 00:55:00;;;;;;;6.47;4.50;;;18.00;99.90;;;;;;5026876;28;20068;-69
2023/09/15 00:57:25;;;;;;;;;;;17.90;99.90;;;;;;5026350;28;20025;-69
2023/09/15 00:59:52;;;;;;;5.53;4.60;;;17.80;99.90;;;;;;5025859;28;19963;-69
2023/09/15 01:02:18;;;;;;;14.80;4.82;;;18.00;99.90;;;;;;5010545;28;20037;-69
2023/09/15 01:04:44;;;;;;;10.95;6.15;;;18.10;99.90;;;;;;5008045;28;20037;-69
2023/09/15 01:07:10;;;;;;;9.60;5.30;;;17.90;99.90;;;;;;5010407;28;20639;-69
2023/09/15 01:09:36;;;;;;;9.90;5.25;;;17.90;99.90;;;;;;5007008;28;20132;-69
2023/09/15 01:12:04;;;;;;;6.03;4.73;;;17.90;99.90;;;;;;5006802;28;20164;-69
2023/09/15 01:14:30;;;;;;;7.78;4.78;;;17.90;99.90;;;;;;5020903;28;20029;-69
2023/09/15 01:16:58;;;;;;;25.13;6.05;;;17.90;99.90;;;;;;5024909;28;20901;-69
2023/09/15 01:19:54;;;;;;;10.05;5.53;;;17.80;99.90;;;;;;5026177;28;20064;-69
2023/09/15 01:22:30;;;;;;;16.90;6.35;;;17.80;99.90;;;;;;5026209;28;20071;-69
2023/09/15 01:25:17;;;;;;;6.50;5.10;;;17.70;99.90;;;;;;5026652;28;20048;-69
2023/09/15 01:27:48;;;;;;;8.88;5.57;;;17.60;99.90;;;;;;5025912;28;20039;-69
2023/09/15 01:30:15;;;;;;;8.10;5.25;;;17.50;99.90;;;;;;5025930;28;20041;-69
2023/09/15 01:32:43;;;;;;;13.07;5.75;;;17.50;99.90;;;;;;5026033;28;20431;-69
2023/09/15 01:35:08;;;;;;;8.57;5.30;;;17.60;99.90;;;;;;5026151;28;20037;-69
2023/09/15 01:37:34;;;;;;;12.33;5.03;;;17.50;99.90;;;;;;5025725;28;20382;-69
2023/09/15 01:39:59;;;;;;;8.17;5.27;;;17.40;99.90;;;;;;5026243;28;20030;-69
2023/09/15 01:42:25;;;;;;;10.37;5.00;;;17.30;99.90;;;;;;5025095;28;20028;-69
2023/09/15 01:44:51;;;;;;;8.85;5.00;;;17.30;99.90;;;;;;5026235;28;20032;-70
2023/09/15 01:47:21;;;;;;;12.48;5.60;;;17.40;99.90;;;;;;5027051;28;20065;-69
2023/09/15 01:49:50;;;;;;;7.72;5.22;;;17.30;99.90;;;;;;5026541;28;20038;-70
2023/09/15 01:52:16;;;;;;;7.88;4.82;;;17.30;99.90;;;;;;5026665;28;20053;-69
2023/09/15 01:54:42;;;;;;;6.65;4.30;;;17.30;99.90;;;;;;5026542;28;20492;-69
2023/09/15 01:57:08;;;;;;;8.65;5.57;;;17.20;99.90;;;;;;5026231;28;20105;-69
2023/09/15 01:59:34;;;;;;;6.83;4.60;;;17.30;99.90;;;;;;5026862;28;20036;-69
2023/09/15 02:02:00;;;;;;;8.07;5.07;;;17.30;99.90;;;;;;5014180;28;20040;-69
2023/09/15 02:04:25;;;;;;;7.60;5.70;;;17.30;99.90;;;;;;5006184;28;20409;-69
2023/09/15 02:06:51;;;;;;;6.17;4.93;;;17.30;99.90;;;;;;5007271;28;20040;-69
2023/09/15 02:09:18;;;;;;;7.50;5.07;;;17.30;99.90;;;;;;5009925;28;20041;-69
2023/09/15 02:11:43;;;;;;;;;;;17.20;99.90;;;;;;5013228;28;20494;-69
2023/09/15 02:14:09;;;;;;;11.13;6.13;;;17.30;99.90;;;;;;5021193;28;19931;-69
2023/09/15 02:16:35;;;;;;;12.67;5.90;;;17.20;99.90;;;;;;5029126;28;20030;-69
2023/09/15 02:19:00;;;;;;;9.02;6.65;;;17.10;99.90;;;;;;5029013;28;20458;-69
2023/09/15 02:21:26;;;;;;;6.77;4.87;;;17.10;99.90;;;;;;5029765;28;20040;-69
2023/09/15 02:23:52;;;;;;;8.43;5.28;;;17.10;99.90;;;;;;5028381;28;20033;-69
2023/09/15 02:26:20;;;;;;;13.18;5.78;;;17.20;99.90;;;;;;5029554;28;20049;-68
2023/09/15 02:28:46;;;;;;;17.15;6.60;;;17.20;99.90;;;;;;5029234;28;20033;-69
2023/09/15 02:31:12;;;;;;;12.57;5.65;;;17.10;99.90;;;;;;5028490;28;20282;-69
2023/09/15 02:33:37;;;;;;;8.17;5.50;;;17.20;99.90;;;;;;5029370;28;20072;-69
2023/09/15 02:36:03;;;;;;;10.07;5.90;;;17.10;99.90;;;;;;5029249;28;20840;-68
2023/09/15 02:38:29;;;;;;;10.00;5.65;;;17.10;99.90;;;;;;5029159;28;20053;-69
2023/09/15 02:40:55;;;;;;;15.07;5.87;;;17.20;99.90;;;;;;5029119;28;20029;-69
2023/09/15 02:43:20;;;;;;;10.60;5.87;;;17.20;99.90;;;;;;5029902;28;20087;-69
2023/09/15 02:45:46;;;;;;;8.13;5.47;;;17.10;99.90;;;;;;5029822;28;20025;-69
2023/09/15 02:48:12;;;;;;;9.37;5.37;;;17.20;99.90;;;;;;5027061;28;20075;-69
2023/09/15 02:50:42;;;;;;;14.07;6.80;;;17.20;99.90;;;;;;5028663;28;20061;-68
2023/09/15 02:53:08;;;;;;;13.80;5.85;;;17.20;99.90;;;;;;5028277;28;20489;-69
2023/09/15 02:55:33;;;;;;;11.73;5.77;;;17.30;99.90;;;;;;5028281;28;20088;-69
2023/09/15 02:57:59;;;;;;;11.27;5.57;;;17.20;99.90;;;;;;5009139;28;20081;-69
2023/09/15 03:00:24;;;;;;;7.43;5.97;;;17.20;99.90;;;;;;5008811;28;20095;-69
2023/09/15 03:02:51;;;;;;;12.53;5.30;;;17.30;99.90;;;;;;5009473;28;20033;-69
2023/09/15 03:05:20;;;;;;;10.02;5.88;;;17.20;99.90;;;;;;5009277;28;20014;-68
2023/09/15 03:07:46;;;;;;;10.63;6.18;;;17.30;99.90;;;;;;5009191;28;20468;-69
2023/09/15 03:10:11;;;;;;;10.50;5.33;;;17.20;99.90;;;;;;5009375;28;20512;-68
2023/09/15 03:12:37;;;;;;;11.77;5.97;;;17.20;99.90;;;;;;5009425;28;20062;-69
2023/09/15 03:15:06;;;;;;;9.63;6.05;;;17.20;99.90;;;;;;5028612;28;20040;-69
2023/09/15 03:17:32;;;;;;;11.63;5.93;;;17.10;99.90;;;;;;5029732;28;20112;-69
2023/09/15 03:19:58;;;;;;;6.32;5.55;;;17.00;99.90;;;;;;5027934;28;20036;-69
2023/09/15 03:22:24;;;;;;;9.27;5.82;;;17.00;99.90;;;;;;5029272;28;20112;-69
2023/09/15 03:24:50;;;;;;;10.88;6.53;;;17.20;99.90;;;;;;5027599;28;20037;-69
2023/09/15 03:27:16;;;;;;;9.13;6.47;;;17.10;99.90;;;;;;5028293;28;20033;-69
2023/09/15 03:29:41;;;;;;;11.17;6.77;;;17.10;99.90;;;;;;5028516;28;20438;-69
2023/09/15 03:32:07;;;;;;;9.10;6.00;;;17.00;99.90;;;;;;5028596;28;20509;-69
2023/09/15 03:34:32;;;;;;;13.60;6.40;;;17.10;99.90;;;;;;5028417;28;20041;-69
2023/09/15 03:37:01;;;;;;;9.37;5.33;;;16.90;99.90;;;;;;5027370;28;20113;-69
2023/09/15 03:39:26;;;;;;;9.77;6.07;;;16.90;99.90;;;;;;5028409;28;20215;-69
2023/09/15 03:41:52;;;;;;;11.00;6.23;;;16.90;99.90;;;;;;5027782;28;20562;-69
2023/09/15 03:44:19;;;;;;;14.70;7.27;;;17.00;99.90;;;;;;5028403;28;20025;-69
2023/09/15 03:46:44;;;;;;;13.18;6.35;;;17.00;99.90;;;;;;5027790;28;20033;-69
2023/09/15 03:49:10;;;;;;;6.47;5.43;;;16.90;99.90;;;;;;5027384;28;20045;-69
2023/09/15 03:51:36;;;;;;;9.75;6.22;;;16.90;99.90;;;;;;5027736;28;20511;-69
2023/09/15 03:54:02;;;;;;;8.77;5.70;;;16.90;99.90;;;;;;5027591;28;20029;-70
2023/09/15 03:56:28;;;;;;;7.22;5.10;;;17.00;99.90;;;;;;5027524;28;20401;-69
2023/09/15 03:58:55;;;;;;;9.47;5.60;;;17.10;99.90;;;;;;5027612;28;20033;-69
2023/09/15 04:01:23;;;;;;;9.73;5.75;;;17.20;99.90;;;;;;5027375;28;20041;-69
2023/09/15 04:03:49;;;;;;;8.13;5.70;;;17.20;99.90;;;;;;5027196;28;20091;-69
2023/09/15 04:06:16;;;;;;;8.77;5.90;;;17.00;99.90;;;;;;5027309;28;20029;-70
2023/09/15 04:08:41;;;;;;;;;;;16.90;99.90;;;;;;5026688;28;20302;-69
2023/09/15 04:11:07;;;;;;;7.38;5.95;;;16.80;99.90;;;;;;5027418;28;19988;-69
2023/09/15 04:13:32;;;;;;;6.27;5.03;;;16.80;99.90;;;;;;5027335;28;20025;-69
2023/09/15 04:16:00;;;;;;;9.00;5.40;;;16.70;99.90;;;;;;5027030;28;20033;-69
2023/09/15 04:18:26;;;;;;;14.15;5.60;;;16.70;99.90;;;;;;5021833;28;20095;-70
2023/09/15 04:20:53;;;;;;;7.47;5.75;;;16.60;99.90;;;;;;5016536;28;20110;-70
2023/09/15 04:23:19;;;;;;;10.63;5.65;;;16.50;99.90;;;;;;5020365;28;20045;-70
2023/09/15 04:25:45;;;;;;;12.77;7.90;;;16.50;99.90;;;;;;5015632;28;20095;-70
2023/09/15 04:28:11;;;;;;;8.93;6.80;;;16.50;99.90;;;;;;5008940;28;20026;-70
2023/09/15 04:30:37;;;;;;;14.93;6.25;;;16.70;99.90;;;;;;5016740;28;20045;-70
2023/09/15 04:33:03;;;;;;;8.15;6.50;;;16.70;99.90;;;;;;5017482;28;20048;-69
2023/09/15 04:35:28;;;;;;;11.30;6.55;;;16.70;99.90;;;;;;5015182;28;20474;-69
2023/09/15 04:37:54;;;;;;;11.87;6.97;;;16.70;99.90;;;;;;5024304;28;20036;-69
2023/09/15 04:40:20;;;;;;;9.73;6.28;;;16.80;99.90;;;;;;5017106;28;20022;-69
2023/09/15 04:42:46;;;;;;;12.43;6.28;;;16.90;99.90;;;;;;5021833;28;20041;-69
2023/09/15 04:45:12;;;;;;;9.95;6.28;;;16.90;99.90;;;;;;5013487;28;20040;-69
2023/09/15 04:47:40;;;;;;;11.73;5.60;;;17.00;99.90;;;;;;5023722;28;20034;-69
2023/09/15 04:50:07;;;;;;;11.25;6.10;;;16.80;99.90;;;;;;5014558;28;20033;-69
2023/09/15 04:52:33;;;;;;;7.07;5.90;;;16.80;99.90;;;;;;5014020;28;20024;-70
2023/09/15 04:54:58;;;;;;;11.80;6.70;;;16.60;99.90;;;;;;5016688;28;20030;-69
2023/09/15 04:57:24;;;;;;;25.17;7.10;;;16.50;99.90;;;;;;5017416;28;20034;-69
2023/09/15 04:59:53;;;;;;;17.45;6.72;;;16.40;99.90;;;;;;5015557;28;20448;-69
2023/09/15 05:02:22;;;;;;;13.40;6.60;;;16.50;99.90;;;;;;5015169;28;20047;-69
2023/09/15 05:04:48;;;;;;;11.27;6.80;;;16.50;99.90;;;;;;5013163;28;20436;-69
2023/09/15 05:07:13;;;;;;;14.32;6.45;;;16.50;99.90;;;;;;5015227;28;20110;-69
2023/09/15 05:09:39;;;;;;;12.80;6.73;;;16.50;99.90;;;;;;5014737;28;20525;-69
2023/09/15 05:12:05;;;;;;;14.30;6.60;;;16.40;99.90;;;;;;5015518;28;20038;-69
2023/09/15 05:14:31;;;;;;;7.90;6.18;;;16.40;99.90;;;;;;5021446;28;20025;-69
2023/09/15 05:16:56;;;;;;;12.77;6.47;;;16.40;99.90;;;;;;5014633;28;20485;-69
2023/09/15 05:19:22;;;;;;;7.43;6.07;;;16.50;99.90;;;;;;5011940;28;20515;-69
2023/09/15 05:21:48;;;;;;;14.90;6.53;;;16.50;99.90;;;;;;5014189;28;20298;-69
2023/09/15 05:24:13;;;;;;;12.70;6.53;;;16.60;99.90;;;;;;5014979;28;20038;-70
2023/09/15 05:26:39;;;;;;;17.50;7.13;;;16.50;99.90;;;;;;5017025;28;20030;-68
2023/09/15 05:29:04;;;;;;;11.93;7.07;;;16.60;99.90;;;;;;5014487;28;20508;-69
2023/09/15 05:31:30;;;;;;;9.77;6.50;;;16.40;99.90;;;;;;5011247;28;20057;-69
2023/09/15 05:33:57;;;;;;;14.13;6.18;;;16.40;99.90;;;;;;5017764;28;20038;-70
2023/09/15 05:36:23;;;;;;;15.00;7.13;;;16.40;99.90;;;;;;5021438;28;20030;-70
2023/09/15 05:38:49;;;;;;;13.95;7.10;;;16.40;99.90;;;;;;5018496;28;20031;-70
2023/09/15 05:41:15;;;;;;;10.63;6.72;;;16.40;99.90;;;;;;5019679;28;20038;-70
2023/09/15 05:43:41;;;;;;;11.15;7.47;;;16.40;99.90;;;;;;5021409;28;20036;-68
2023/09/15 05:46:07;;;;;;;10.83;7.07;;;16.40;99.90;;;;;;5018067;28;20114;-69
2023/09/15 05:48:33;;;;;;;17.80;7.78;;;16.50;99.90;;;;;;5014390;28;20045;-69
2023/09/15 05:50:59;;;;;;;15.00;7.38;;;16.50;99.90;;;;;;5018779;28;20034;-69
2023/09/15 05:53:25;;;;;;;25.15;7.75;;;16.50;99.90;;;;;;5020387;28;20091;-70
2023/09/15 05:55:50;;;;;;;12.35;7.38;;;16.40;99.90;;;;;;5020510;28;20046;-69
2023/09/15 05:58:16;;;;;;;7.13;6.03;;;16.60;99.90;;;;;;5018386;28;20364;-70
2023/09/15 06:00:42;;;;;;;10.03;7.10;;;16.50;99.90;;;;;;5013971;28;20034;-70
2023/09/15 06:03:08;;;;;;;11.52;6.45;;;16.50;99.90;;;;;;5019189;28;20073;-70
2023/09/15 06:05:34;;;;;;;16.05;7.70;;;16.60;99.90;;;;;;5020664;28;20042;-69
2023/09/15 06:08:00;;;;;;;10.68;6.25;;;16.70;99.90;;;;;;5020485;28;20052;-70
2023/09/15 06:10:26;;;;;;;10.88;6.32;;;16.70;99.90;;;;;;5015417;28;20033;-70
2023/09/15 06:12:52;;;;;;;11.43;7.13;;;16.80;99.90;;;;;;5019227;28;20109;-70
2023/09/15 06:15:18;;;;;;;14.60;7.10;;;17.00;99.90;;;;;;5017226;28;20116;-69
2023/09/15 06:17:43;;;;;;;9.05;6.43;;;17.10;99.90;;;;;;5026359;28;20062;-70
2023/09/15 06:20:09;;;;;;;12.00;6.40;;;17.30;99.90;;;;;;5016666;28;20369;-70
2023/09/15 06:22:35;;;;;;;22.60;7.43;;;17.40;99.90;;;;;;5021037;28;20061;-70
2023/09/15 06:25:01;;;;;;;29.93;8.63;;;17.60;99.90;;;;;;5020897;28;20284;-70
2023/09/15 06:27:27;;;;;;;;;;;17.50;99.90;;;;;;5015018;28;20088;-70
2023/09/15 06:29:53;;;;;;;12.40;7.80;;;17.60;99.90;;;;;;5020757;28;19925;-68
2023/09/15 06:32:18;;;;;;;17.07;7.60;;;17.40;99.90;;;;;;5021358;28;20021;-70
2023/09/15 06:34:44;;;;;;;22.00;7.57;;;17.60;99.90;;;;;;5014683;28;20091;-69
2023/09/15 06:37:10;;;;;;;16.38;8.25;;;17.60;99.90;;;;;;5021930;28;20034;-69
2023/09/15 06:39:36;;;;;;;18.63;7.80;;;17.70;99.90;;;;;;5024581;28;20026;-69
2023/09/15 06:42:04;;;;;;;12.13;8.02;;;17.70;99.90;;;;;;5022340;28;20041;-71
2023/09/15 06:44:33;;;;;;;17.83;7.30;;;17.80;99.90;;;;;;5020662;28;20022;-71
2023/09/15 06:46:59;;;;;;;13.82;7.32;;;17.80;99.90;;;;;;5016423;28;20037;-71
2023/09/15 06:49:26;;;;;;;16.73;7.47;;;17.80;99.90;;;;;;5016196;28;20107;-71
2023/09/15 06:51:53;;;;;;;12.63;6.70;;;17.90;99.90;;;;;;5022947;28;20633;-71
2023/09/15 06:54:19;;;;;;;11.85;6.70;;;18.00;99.90;;;;;;5022761;28;20052;-71
2023/09/15 06:56:45;;;;;;;14.50;7.77;;;18.00;99.90;;;;;;5022320;28;20037;-70
2023/09/15 06:59:11;;;;;;;15.23;7.50;;;18.00;99.90;;;;;;5019673;28;20037;-71
2023/09/15 07:01:36;;;;;;;14.47;7.50;;;18.10;99.90;;;;;;5021787;28;20609;-70
2023/09/15 07:04:03;;;;;;;18.73;7.67;;;18.10;99.90;;;;;;5013990;28;20284;-70
2023/09/15 07:06:29;;;;;;;12.30;7.25;;;18.20;99.90;;;;;;5019758;28;20033;-70
2023/09/15 07:08:55;;;;;;;14.43;6.90;;;18.20;99.90;;;;;;5018548;28;20454;-71
2023/09/15 07:11:21;;;;;;;10.23;7.27;;;18.40;99.90;;;;;;5018864;28;20033;-70
2023/09/15 07:13:46;;;;;;;11.50;7.50;;;18.50;99.90;;;;;;5019720;28;20060;-70
2023/09/15 07:16:12;;;;;;;12.03;7.60;;;19.50;99.90;;;;;;5014573;28;20034;-69
2023/09/15 07:18:41;;;;;;;12.30;7.55;;;19.40;99.90;;;;;;5014365;28;20049;-69
2023/09/15 07:21:06;;;;;;;11.10;8.00;;;19.10;99.90;;;;;;5021598;28;20041;-69
2023/09/15 07:23:32;;;;;;;8.70;7.03;;;19.10;99.90;;;;;;5018425;28;20030;-69
2023/09/15 07:25:59;;;;;;;14.63;7.30;;;18.90;99.90;;;;;;5014266;28;20059;-70
2023/09/15 07:28:24;;;;;;;11.23;6.78;;;19.00;99.90;;;;;;5020169;28;20398;-70
2023/09/15 07:30:50;;;;;;;14.10;6.78;;;19.10;99.90;;;;;;5020002;28;20036;-70
2023/09/15 07:33:16;;;;;;;13.57;5.97;;;19.00;99.90;;;;;;5019373;28;20037;-71
2023/09/15 07:35:42;;;;;;;15.97;6.40;;;19.10;99.90;;;;;;5027251;28;20838;-68
2023/09/15 07:38:07;;;;;;;28.83;7.63;;;19.20;99.90;;;;;;5016116;28;20034;-68
2023/09/15 07:40:34;;;;;;;12.65;6.70;;;19.10;99.90;;;;;;5015500;28;20448;-70
2023/09/15 07:42:59;;;;;;;11.07;6.28;;;19.20;99.90;;;;;;5022464;28;20107;-71
2023/09/15 07:45:26;;;;;;;12.30;5.55;;;19.30;99.90;;;;;;5017556;28;20038;-69
2023/09/15 07:47:51;;;;;;;12.82;5.82;;;19.40;99.90;;;;;;5023609;28;20561;-67
2023/09/15 07:50:17;;;;;;;11.47;6.57;;;19.50;99.90;;;;;;5018071;28;20106;-67
2023/09/15 07:52:45;;;;;;;8.85;5.50;;;19.60;99.90;;;;;;5024639;28;20052;-66
2023/09/15 07:55:11;;;;;;;10.52;5.68;;;19.50;99.90;;;;;;5016529;28;20046;-67
2023/09/15 07:57:41;;;;;;;30.55;6.90;;;19.80;99.90;;;;;;5013818;28;20037;-67
2023/09/15 08:00:10;;;;;;;5.97;5.13;;;19.90;99.90;;;;;;5018815;28;20113;-67
2023/09/15 08:02:36;;;;;;;25.13;6.43;;;20.10;99.90;;;;;;5019759;28;20513;-66
2023/09/15 08:05:02;;;;;;;57.45;10.30;;;20.20;99.90;;;;;;5017791;28;20029;-67
2023/09/15 08:07:28;;;;;;;20.90;5.70;;;20.30;99.90;;;;;;5022666;28;20481;-66
2023/09/15 08:09:56;;;;;;;30.57;5.90;;;20.70;99.90;;;;;;5016943;28;20038;-67
2023/09/15 08:12:23;;;;;;;41.95;8.13;;;21.00;99.90;;;;;;5021189;28;20056;-67
2023/09/15 08:14:50;;;;;;;8.18;4.85;;;22.40;99.90;;;;;;5020959;28;20733;-66
2023/09/15 08:17:16;;;;;;;21.17;6.47;;;22.10;99.90;;;;;;5022893;28;20056;-67
2023/09/15 08:19:42;;;;;;;12.57;4.70;;;21.50;99.90;;;;;;5024351;28;20048;-67
2023/09/15 08:22:07;;;;;;;16.17;5.38;;;21.60;99.90;;;;;;5015681;28;20034;-67
2023/09/15 08:24:33;;;;;;;12.20;4.30;;;21.50;99.90;;;;;;5017255;28;20108;-66
2023/09/15 08:26:59;;;;;;;10.60;4.93;;;22.10;99.90;;;;;;5019821;28;20033;-67
2023/09/15 08:29:24;;;;;;;6.47;4.73;;;22.90;99.90;;;;;;5019867;28;20334;-67
2023/09/15 08:31:50;;;;;;;11.80;5.40;;;25.00;97.60;;;;;;5014326;28;20369;-67
2023/09/15 08:34:15;;;;;;;5.70;4.23;;;24.70;94.90;;;;;;5022013;28;20983;-67
2023/09/15 08:36:42;;;;;;;12.40;5.27;;;23.80;97.20;;;;;;5016201;28;20284;-69
2023/09/15 08:39:07;;;;;;;8.82;4.38;;;23.50;96.80;;;;;;5015043;28;20040;-67
2023/09/15 08:41:39;;;;;;;17.17;5.47;;;23.50;97.30;;;;;;5015683;28;20029;-67
2023/09/15 08:44:09;;;;;;;11.90;4.70;;;23.30;99.10;;;;;;5017420;28;20360;-68
2023/09/15 08:46:39;;;;;;;9.13;4.72;;;25.20;94.70;;;;;;5012971;28;20029;-67
2023/09/15 08:49:06;;;;;;;28.23;5.43;;;26.80;91.10;;;;;;5020434;28;20041;-68
2023/09/15 08:51:32;;;;;;;11.73;4.30;;;27.60;89.30;;;;;;5014617;28;20033;-69
2023/09/15 08:53:58;;;;;;;;;;;27.60;86.30;;;;;;5016566;28;20037;-68
2023/09/15 08:56:27;;;;;;;15.85;4.28;;;26.50;87.80;;;;;;5015340;28;20300;-69
2023/09/15 08:58:53;;;;;;;7.30;3.67;;;25.50;89.90;;;;;;5013200;28;20246;-68
2023/09/15 09:01:19;;;;;;;;;;;25.10;91.90;;;;;;5019108;28;20025;-67
2023/09/15 09:03:44;;;;;;;22.23;5.22;;;25.80;91.30;;;;;;5017596;28;19910;-67
2023/09/15 09:06:12;;;;;;;6.25;3.47;;;27.80;88.20;;;;;;5014841;28;20026;-67
2023/09/15 09:08:45;;;;;;;5.90;3.70;;;29.00;84.70;;;;;;5019471;28;20044;-68
2023/09/15 09:11:11;;;;;;;5.13;3.88;;;29.50;84.10;;;;;;5013625;28;20037;-68
2023/09/15 09:13:36;;;;;;;;;;;29.80;80.30;;;;;;5019585;28;20609;-67
2023/09/15 09:16:05;;;;;;;4.43;3.83;;;28.10;79.50;;;;;;5018645;28;19916;-69
2023/09/15 09:18:32;;;;;;;9.85;3.78;;;28.90;80.80;;;;;;5014137;28;20038;-68
2023/09/15 09:20:58;;;;;;;7.10;3.75;;;29.00;79.70;;;;;;5015151;28;20049;-69
2023/09/15 09:23:23;;;;;;;;;;;28.20;79.30;;;;;;5020485;28;20716;-69
2023/09/15 09:25:49;;;;;;;13.40;3.83;;;29.00;81.30;;;;;;5023718;28;20242;-70
2023/09/15 09:28:15;;;;;;;;;;;28.40;81.50;;;;;;5022228;28;20409;-70
2023/09/15 09:30:40;;;;;;;6.07;3.97;;;28.50;81.00;;;;;;5017022;28;20387;-69
2023/09/15 09:33:08;;;;;;;;;;;29.10;79.30;;;;;;5023630;28;20037;-71
2023/09/15 09:35:35;;;;;;;4.82;3.50;;;29.10;79.10;;;;;;5018929;28;19916;-69
2023/09/15 09:38:01;;;;;;;5.95;3.55;;;29.30;78.90;;;;;;5022536;28;20030;-70
2023/09/15 09:40:27;;;;;;;7.15;3.92;;;29.30;78.90;;;;;;5024101;28;20030;-70
2023/09/15 09:42:55;;;;;;;4.88;3.92;;;29.10;78.00;;;;;;5017728;28;20112;-68
2023/09/15 09:45:28;;;;;;;8.93;4.93;;;29.20;78.20;;;;;;5017086;28;20087;-69
2023/09/15 09:47:55;;;;;;;4.63;3.40;;;29.20;77.50;;;;;;5022520;28;20055;-70
2023/09/15 09:50:21;;;;;;;7.88;3.55;;;29.20;78.30;;;;;;5024155;28;20549;-70
2023/09/15 09:52:48;;;;;;;3.53;3.08;;;29.20;77.30;;;;;;5015699;28;20037;-70
2023/09/15 09:55:14;;;;;;;4.45;3.30;;;28.70;75.10;;;;;;5023449;28;20030;-71
2023/09/15 09:57:40;;;;;;;3.90;3.20;;;28.30;78.90;;;;;;5019417;28;20031;-71
2023/09/15 10:00:09;;;;;;;7.57;3.42;;;27.60;77.10;;;;;;5023590;28;20056;-71
2023/09/15 10:02:42;;;;;;;4.28;3.38;;;27.20;81.60;;;;;;5022008;28;20088;-72
2023/09/15 10:05:08;;;;;;;4.15;3.42;;;27.00;81.20;;;;;;5020676;28;20061;-73
2023/09/15 10:07:35;;;;;;;7.47;3.47;;;27.00;80.90;;;;;;5022889;28;20041;-70
2023/09/15 10:10:03;;;;;;;4.80;3.25;;;27.00;80.30;;;;;;5019225;28;20045;-71
2023/09/15 10:12:29;;;;;;;4.00;3.47;;;27.10;80.90;;;;;;5021316;28;20022;-72
2023/09/15 10:14:56;;;;;;;7.88;3.83;;;27.70;78.80;;;;;;5019542;28;20041;-71
2023/09/15 10:17:22;;;;;;;3.95;3.58;;;28.10;77.30;;;;;;5023071;28;20029;-72
2023/09/15 10:19:47;;;;;;;;;;;28.50;76.70;;;;;;5022525;28;20029;-73
2023/09/15 10:22:17;;;;;;;5.05;3.55;;;28.20;76.90;;;;;;5020966;28;19919;-74
2023/09/15 10:24:47;;;;;;;4.82;3.35;;;27.90;77.10;;;;;;5018619;28;20055;-72
2023/09/15 10:27:14;;;;;;;5.55;2.90;;;27.30;78.10;;;;;;5022006;28;20033;-74
2023/09/15 10:29:44;;;;;;;3.85;3.28;;;27.00;79.20;;;;;;5024562;28;20167;-71
2023/09/15 10:32:09;;;;;;;5.35;3.63;;;26.70;80.40;;;;;;5025198;28;20486;-73
2023/09/15 10:34:36;;;;;;;5.10;3.38;;;26.50;81.00;;;;;;5025608;28;20029;-74
2023/09/15 10:37:02;;;;;;;3.58;3.28;;;26.40;80.80;;;;;;5023329;28;20115;-74
2023/09/15 10:39:35;;;;;;;;;;;26.20;80.10;;;;;;5028292;28;20568;-74
2023/09/15 10:42:09;;;;;;;11.77;3.78;;;26.10;81.30;;;;;;5027889;28;19920;-71
2023/09/15 10:44:34;;;;;;;5.63;3.55;;;26.10;80.90;;;;;;5026413;28;20029;-73
2023/09/15 10:47:00;;;;;;;7.68;3.50;;;26.10;81.60;;;;;;5021652;28;20041;-74
2023/09/15 10:49:26;;;;;;;4.40;3.72;;;26.00;81.40;;;;;;5027115;28;20052;-70
2023/09/15 10:51:56;;;;;;;4.45;4.05;;;26.00;81.40;;;;;;5022936;28;20033;-70
2023/09/15 10:54:31;;;;;;;10.25;3.42;;;25.90;81.50;;;;;;5025700;28;20027;-70
2023/09/15 10:56:57;;;;;;;5.28;3.40;;;25.80;82.00;;;;;;5025258;28;20029;-70
2023/09/15 10:59:24;;;;;;;;;;;25.70;80.80;;;;;;5025405;28;20136;-71
2023/09/15 11:01:50;;;;;;;7.82;3.50;;;25.80;82.10;;;;;;5023654;28;19932;-72
2023/09/15 11:04:22;;;;;;;6.10;3.58;;;25.70;82.20;;;;;;5026875;28;20045;-73
2023/09/15 11:06:50;;;;;;;4.57;3.30;;;25.60;82.70;;;;;;5026323;28;20379;-71
2023/09/15 11:09:16;;;;;;;5.32;3.60;;;25.60;83.70;;;;;;5024336;28;20041;-70
2023/09/15 11:11:49;;;;;;;7.05;3.63;;;25.50;82.40;;;;;;5023969;28;20033;-70
2023/09/15 11:14:16;;;;;;;5.68;3.40;;;25.50;83.60;;;;;;5025619;28;20033;-70
2023/09/15 11:16:44;;;;;;;4.47;4.07;;;25.50;82.90;;;;;;5025140;28;20497;-70
2023/09/15 11:19:11;;;;;;;7.70;3.75;;;25.60;81.80;;;;;;5025927;28;20037;-71
2023/09/15 11:21:39;;;;;;;4.63;3.30;;;25.60;80.80;;;;;;5021422;28;20395;-69
2023/09/15 11:24:08;;;;;;;5.45;3.67;;;25.60;82.00;;;;;;5023828;28;20030;-70
2023/09/15 11:26:33;;;;;;;6.97;3.67;;;25.80;80.60;;;;;;5024401;28;20075;-70
2023/09/15 11:28:59;;;;;;;4.97;3.13;;;25.90;80.50;;;;;;5024452;28;20053;-69
2023/09/15 11:31:26;;;;;;;5.45;3.13;;;25.80;80.60;;;;;;5023771;28;20113;-70
2023/09/15 11:33:54;;;;;;;5.47;2.58;;;25.90;78.70;;;;;;5024623;28;20036;-71
2023/09/15 11:36:20;;;;;;;3.63;2.90;;;26.00;79.60;;;;;;5025093;28;20336;-68
2023/09/15 11:38:47;;;;;;;4.32;2.83;;;26.00;76.90;;;;;;5024221;28;20390;-70
2023/09/15 11:41:12;;;;;;;;;;;26.00;78.00;;;;;;5022027;28;20461;-69
2023/09/15 11:43:39;;;;;;;3.55;2.80;;;25.90;77.80;;;;;;5024486;28;20007;-72
2023/09/15 11:46:07;;;;;;;6.78;3.38;;;26.00;78.90;;;;;;5022545;28;20128;-71
2023/09/15 11:48:38;;;;;;;4.30;2.85;;;26.00;80.80;;;;;;5024435;28;20877;-72
2023/09/15 11:51:10;;;;;;;6.13;2.90;;;26.10;78.40;;;;;;5019672;28;20042;-71
2023/09/15 11:53:39;;;;;;;4.18;2.97;;;26.30;77.30;;;;;;5020471;28;20036;-70
2023/09/15 11:56:05;;;;;;;3.20;2.90;;;26.40;77.90;;;;;;5022474;28;20061;-70
2023/09/15 11:58:32;;;;;;;;;;;26.20;79.60;;;;;;5025207;28;20067;-68
2023/09/15 12:00:58;;;;;;;3.83;2.53;;;26.20;79.10;;;;;;5023760;28;19913;-69
2023/09/15 12:03:26;;;;;;;3.63;2.70;;;26.10;77.20;;;;;;5020622;28;20033;-71
2023/09/15 12:05:52;;;;;;;5.97;3.00;;;26.10;77.00;;;;;;5019958;28;20056;-70
2023/09/15 12:08:18;;;;;;;5.50;2.67;;;26.20;77.80;;;;;;5021391;28;20491;-73
2023/09/15 12:10:44;;;;;;;8.95;2.90;;;26.20;74.20;;;;;;5022633;28;20037;-70
2023/09/15 12:13:10;;;;;;;3.67;2.70;;;26.20;75.60;;;;;;5024044;28;20112;-70
2023/09/15 12:15:36;;;;;;;5.95;2.70;;;26.30;74.30;;;;;;5017447;28;20140;-78
2023/09/15 12:18:05;;;;;;;6.05;3.20;;;26.40;77.50;;;;;;5017837;28;20121;-77
2023/09/15 12:20:35;;;;;;;5.97;2.83;;;26.50;76.20;;;;;;5024405;28;20034;-82
2023/09/15 12:23:10;;;;;;;5.75;3.30;;;26.60;74.40;;;;;;5023997;28;20124;-78
2023/09/15 12:25:37;;;;;;;5.88;2.65;;;26.80;75.60;;;;;;5021621;28;20033;-80
2023/09/15 12:28:03;;;;;;;2.92;2.55;;;26.70;74.30;;;;;;5025118;28;20037;-75
2023/09/15 12:30:29;;;;;;;3.60;2.90;;;26.70;74.30;;;;;;5022911;28;20060;-79
2023/09/15 12:32:55;;;;;;;6.30;2.97;;;26.70;75.00;;;;;;5023327;28;20079;-76
2023/09/15 12:35:20;;;;;;;;;;;26.80;76.00;;;;;;5024639;28;20131;-79
2023/09/15 12:37:46;;;;;;;4.10;2.78;;;26.90;74.60;;;;;;5025018;28;20715;-78
2023/09/15 12:40:14;;;;;;;3.13;2.83;;;26.90;74.40;;;;;;5022882;28;20025;-79
2023/09/15 12:42:41;;;;;;;2.90;2.60;;;27.00;74.50;;;;;;5023708;28;20088;-80
2023/09/15 12:45:07;;;;;;;6.28;2.80;;;27.10;73.80;;;;;;5024813;28;20033;-80